sensor_id;sensor_type;location;lat;lon;timestamp;pressure;altitude;pressure_sealevel;temperature;humidity
72395;BME280;60384;48.152;11.614;2023-01-30T09:34:50;95934.72;;;5.14;64.45
72395;BME280;60384;48.152;11.614;2023-01-30T09:37:52;95931.66;;;5.69;63.98
72395;BME280;60384;48.152;11.614;2023-01-30T09:41:17;95919.69;;;5.72;64.68
72395;BME280;60384;48.152;11.614;2023-01-30T09:44:43;95919.66;;;5.43;66.12
72395;BME280;60384;48.152;11.614;2023-01-30T09:47:57;95909.28;;;5.13;66.99
72395;BME280;60384;48.152;11.614;2023-01-30T09:51:15;95908.13;;;4.90;67.63
72395;BME280;60384;48.152;11.614;2023-01-30T09:54:22;95896.06;;;4.69;68.39
72395;BME280;60384;48.152;11.614;2023-01-30T09:57:28;95890.09;;;4.53;68.91
72395;BME280;60384;48.152;11.614;2023-01-30T10:00:33;95892.16;;;4.56;68.77
72395;BME280;60384;48.152;11.614;2023-01-30T10:03:40;95884.84;;;4.43;69.08
72395;BME280;60384;48.152;11.614;2023-01-30T10:06:57;95894.38;;;4.44;69.20
72395;BME280;60384;48.152;11.614;2023-01-30T10:10:06;95879.25;;;4.44;68.88
72395;BME280;60384;48.152;11.614;2023-01-30T10:13:24;95910.72;;;4.51;69.45
72395;BME280;60384;48.152;11.614;2023-01-30T10:16:34;95908.47;;;4.73;68.38
72395;BME280;60384;48.152;11.614;2023-01-30T10:20:24;95878.69;;;4.57;69.37
72395;BME280;60384;48.152;11.614;2023-01-30T10:23:45;95858.38;;;4.48;69.38
72395;BME280;60384;48.152;11.614;2023-01-30T10:26:50;95848.28;;;4.55;70.20
72395;BME280;60384;48.152;11.614;2023-01-30T10:29:55;95852.41;;;4.71;69.87
72395;BME280;60384;48.152;11.614;2023-01-30T10:33:02;95847.53;;;4.88;69.44
72395;BME280;60384;48.152;11.614;2023-01-30T10:36:07;95841.78;;;5.15;69.63
72395;BME280;60384;48.152;11.614;2023-01-30T10:39:24;95815.44;;;5.58;68.58
72395;BME280;60384;48.152;11.614;2023-01-30T10:42:33;95842.03;;;6.00;68.18
72395;BME280;60384;48.152;11.614;2023-01-30T10:45:42;95833.72;;;6.68;67.27
72395;BME280;60384;48.152;11.614;2023-01-30T10:48:54;95832.91;;;7.05;65.71
72395;BME280;60384;48.152;11.614;2023-01-30T10:52:03;95828.47;;;7.00;65.88
72395;BME280;60384;48.152;11.614;2023-01-30T10:55:14;95834.50;;;6.69;66.43
72395;BME280;60384;48.152;11.614;2023-01-30T10:58:23;95839.81;;;6.50;67.21
72395;BME280;60384;48.152;11.614;2023-01-30T11:01:31;95823.69;;;6.46;67.06
72395;BME280;60384;48.152;11.614;2023-01-30T11:04:42;95825.50;;;6.27;68.21
72395;BME280;60384;48.152;11.614;2023-01-30T11:07:47;95823.34;;;6.10;68.01
72395;BME280;60384;48.152;11.614;2023-01-30T11:10:52;95820.41;;;6.12;68.51
72395;BME280;60384;48.152;11.614;2023-01-30T11:14:02;95803.50;;;6.08;68.50
72395;BME280;60384;48.152;11.614;2023-01-30T11:17:04;95805.91;;;6.04;68.93
72395;BME280;60384;48.152;11.614;2023-01-30T11:20:12;95790.66;;;5.96;69.24
72395;BME280;60384;48.152;11.614;2023-01-30T11:23:24;95789.06;;;5.95;69.04
72395;BME280;60384;48.152;11.614;2023-01-30T11:26:32;95788.66;;;6.07;68.40
72395;BME280;60384;48.152;11.614;2023-01-30T11:29:37;95758.84;;;6.15;68.26
72395;BME280;60384;48.152;11.614;2023-01-30T11:32:41;95746.53;;;7.07;66.11
72395;BME280;60384;48.152;11.614;2023-01-30T11:35:50;95746.28;;;9.52;61.50
72395;BME280;60384;48.152;11.614;2023-01-30T11:38:57;95748.13;;;10.48;58.84
72395;BME280;60384;48.152;11.614;2023-01-30T11:42:01;95750.94;;;9.38;62.59
72395;BME280;60384;48.152;11.614;2023-01-30T11:45:10;95740.25;;;8.40;64.64
72395;BME280;60384;48.152;11.614;2023-01-30T11:48:16;95744.63;;;7.95;65.52
72395;BME280;60384;48.152;11.614;2023-01-30T11:51:21;95742.66;;;7.32;67.17
72395;BME280;60384;48.152;11.614;2023-01-30T11:54:29;95738.84;;;6.92;68.17
72395;BME280;60384;48.152;11.614;2023-01-30T11:57:39;95720.53;;;6.58;68.22
72395;BME280;60384;48.152;11.614;2023-01-30T12:00:46;95733.09;;;6.34;68.81
72395;BME280;60384;48.152;11.614;2023-01-30T12:03:50;95723.44;;;6.06;68.94
72395;BME280;60384;48.152;11.614;2023-01-30T12:07:04;95729.22;;;5.89;69.57
72395;BME280;60384;48.152;11.614;2023-01-30T12:10:25;95742.31;;;5.80;69.65
72395;BME280;60384;48.152;11.614;2023-01-30T12:13:34;95725.94;;;5.73;69.24
72395;BME280;60384;48.152;11.614;2023-01-30T12:16:48;95720.53;;;5.60;69.45
72395;BME280;60384;48.152;11.614;2023-01-30T12:19:57;95715.38;;;5.50;69.54
72395;BME280;60384;48.152;11.614;2023-01-30T12:23:09;95721.78;;;5.44;69.87
72395;BME280;60384;48.152;11.614;2023-01-30T12:26:15;95697.50;;;5.36;69.79
72395;BME280;60384;48.152;11.614;2023-01-30T12:29:27;95710.53;;;5.33;70.11
72395;BME280;60384;48.152;11.614;2023-01-30T12:32:33;95698.94;;;5.29;70.11
72395;BME280;60384;48.152;11.614;2023-01-30T12:35:51;95706.13;;;5.23;69.95
72395;BME280;60384;48.152;11.614;2023-01-30T12:39:12;95689.72;;;5.21;70.39
72395;BME280;60384;48.152;11.614;2023-01-30T12:42:39;95659.03;;;5.20;69.82
72395;BME280;60384;48.152;11.614;2023-01-30T12:45:49;95677.84;;;5.19;70.04
72395;BME280;60384;48.152;11.614;2023-01-30T12:49:03;95682.06;;;5.20;70.16
72395;BME280;60384;48.152;11.614;2023-01-30T12:52:21;95678.06;;;5.22;69.79
72395;BME280;60384;48.152;11.614;2023-01-30T12:55:36;95684.91;;;5.28;69.35
72395;BME280;60384;48.152;11.614;2023-01-30T12:58:45;95673.00;;;5.26;69.63
72395;BME280;60384;48.152;11.614;2023-01-30T13:02:01;95691.25;;;5.27;69.51
72395;BME280;60384;48.152;11.614;2023-01-30T13:05:21;95687.28;;;5.25;70.01
72395;BME280;60384;48.152;11.614;2023-01-30T13:08:36;95693.97;;;5.22;69.89
72395;BME280;60384;48.152;11.614;2023-01-30T13:11:49;95687.59;;;5.23;69.46
72395;BME280;60384;48.152;11.614;2023-01-30T13:15:00;95702.13;;;5.26;69.59
72395;BME280;60384;48.152;11.614;2023-01-30T13:18:11;95692.91;;;5.23;69.51
72395;BME280;60384;48.152;11.614;2023-01-30T13:21:19;95704.81;;;5.21;69.66
72395;BME280;60384;48.152;11.614;2023-01-30T13:24:30;95708.84;;;5.18;70.05
72395;BME280;60384;48.152;11.614;2023-01-30T13:27:37;95701.66;;;5.19;69.83
72395;BME280;60384;48.152;11.614;2023-01-30T13:30:41;95717.53;;;5.19;69.56
72395;BME280;60384;48.152;11.614;2023-01-30T13:33:49;95715.94;;;5.23;69.85
72395;BME280;60384;48.152;11.614;2023-01-30T13:36:55;95717.53;;;5.24;69.79
72395;BME280;60384;48.152;11.614;2023-01-30T13:40:03;95713.56;;;5.21;70.33
72395;BME280;60384;48.152;11.614;2023-01-30T13:43:12;95725.00;;;5.17;69.82
72395;BME280;60384;48.152;11.614;2023-01-30T13:46:22;95744.38;;;5.12;69.69
72395;BME280;60384;48.152;11.614;2023-01-30T13:49:29;95736.72;;;5.11;70.21
72395;BME280;60384;48.152;11.614;2023-01-30T13:52:41;95727.19;;;5.10;70.37
72395;BME280;60384;48.152;11.614;2023-01-30T13:55:51;95713.44;;;5.08;70.05
72395;BME280;60384;48.152;11.614;2023-01-30T13:58:59;95735.69;;;5.07;69.83
72395;BME280;60384;48.152;11.614;2023-01-30T14:02:19;95733.06;;;5.07;70.27
72395;BME280;60384;48.152;11.614;2023-01-30T14:09:04;95734.91;;;5.06;70.16
72395;BME280;60384;48.152;11.614;2023-01-30T14:12:21;95734.59;;;5.08;69.77
72395;BME280;60384;48.152;11.614;2023-01-30T14:15:25;95728.25;;;5.09;70.03
72395;BME280;60384;48.152;11.614;2023-01-30T14:18:30;95745.97;;;5.08;70.24
72395;BME280;60384;48.152;11.614;2023-01-30T14:21:33;95742.84;;;5.06;69.62
72395;BME280;60384;48.152;11.614;2023-01-30T14:24:36;95755.03;;;5.02;70.18
72395;BME280;60384;48.152;11.614;2023-01-30T14:27:38;95758.00;;;5.01;70.23
72395;BME280;60384;48.152;11.614;2023-01-30T14:30:45;95763.03;;;4.97;70.49
72395;BME280;60384;48.152;11.614;2023-01-30T14:33:48;95766.25;;;4.94;70.19
72395;BME280;60384;48.152;11.614;2023-01-30T14:36:52;95775.53;;;4.91;70.18
72395;BME280;60384;48.152;11.614;2023-01-30T14:39:57;95792.75;;;4.89;70.33
72395;BME280;60384;48.152;11.614;2023-01-30T14:46:46;95791.78;;;4.75;70.38
72395;BME280;60384;48.152;11.614;2023-01-30T14:49:54;95817.50;;;4.69;70.77
72395;BME280;60384;48.152;11.614;2023-01-30T14:52:57;95803.00;;;4.62;70.20
72395;BME280;60384;48.152;11.614;2023-01-30T14:56:02;95813.34;;;4.58;70.48
72395;BME280;60384;48.152;11.614;2023-01-30T14:59:08;95816.56;;;4.55;70.76
72395;BME280;60384;48.152;11.614;2023-01-30T15:02:23;95804.66;;;4.52;70.79
72395;BME280;60384;48.152;11.614;2023-01-30T15:05:30;95830.88;;;4.49;70.67
72395;BME280;60384;48.152;11.614;2023-01-30T15:08:33;95840.91;;;4.47;70.88
72395;BME280;60384;48.152;11.614;2023-01-30T15:11:36;95835.41;;;4.43;71.10
72395;BME280;60384;48.152;11.614;2023-01-30T15:14:45;95857.88;;;4.41;70.89
72395;BME280;60384;48.152;11.614;2023-01-30T15:18:06;95860.78;;;4.39;70.50
72395;BME280;60384;48.152;11.614;2023-01-30T15:21:36;95871.91;;;4.36;71.03
72395;BME280;60384;48.152;11.614;2023-01-30T15:25:04;95865.59;;;4.32;70.60
72395;BME280;60384;48.152;11.614;2023-01-30T15:28:22;95857.13;;;4.30;70.92
72395;BME280;60384;48.152;11.614;2023-01-30T15:31:30;95869.81;;;4.28;71.03
72395;BME280;60384;48.152;11.614;2023-01-30T15:34:33;95872.75;;;4.27;71.11
72395;BME280;60384;48.152;11.614;2023-01-30T15:37:36;95887.31;;;4.24;71.15
72395;BME280;60384;48.152;11.614;2023-01-30T15:40:39;95882.56;;;4.21;71.15
72395;BME280;60384;48.152;11.614;2023-01-30T15:50:53;95893.44;;;4.14;70.79
72395;BME280;60384;48.152;11.614;2023-01-30T15:53:57;95903.47;;;4.12;70.58
72395;BME280;60384;48.152;11.614;2023-01-30T15:57:00;95908.22;;;4.10;70.65
72395;BME280;60384;48.152;11.614;2023-01-30T16:00:06;95922.00;;;4.07;70.65
72395;BME280;60384;48.152;11.614;2023-01-30T16:03:15;95928.59;;;4.05;71.14
72395;BME280;60384;48.152;11.614;2023-01-30T16:06:26;95943.16;;;4.02;71.33
72395;BME280;60384;48.152;11.614;2023-01-30T16:09:28;95960.59;;;3.98;70.91
72395;BME280;60384;48.152;11.614;2023-01-30T16:12:30;95960.34;;;3.95;70.86
72395;BME280;60384;48.152;11.614;2023-01-30T16:15:39;95968.53;;;3.93;71.50
72395;BME280;60384;48.152;11.614;2023-01-30T16:18:45;95969.06;;;3.90;71.27
72395;BME280;60384;48.152;11.614;2023-01-30T16:21:49;95978.84;;;3.90;70.84
72395;BME280;60384;48.152;11.614;2023-01-30T16:24:52;95998.69;;;3.87;71.18
72395;BME280;60384;48.152;11.614;2023-01-30T16:27:55;95983.59;;;3.83;71.55
72395;BME280;60384;48.152;11.614;2023-01-30T16:31:02;95995.75;;;3.79;71.28
72395;BME280;60384;48.152;11.614;2023-01-30T16:34:05;95987.84;;;3.73;71.45
72395;BME280;60384;48.152;11.614;2023-01-30T16:37:23;96004.50;;;3.69;71.65
72395;BME280;60384;48.152;11.614;2023-01-30T16:40:27;95998.13;;;3.65;71.13
72395;BME280;60384;48.152;11.614;2023-01-30T16:43:31;96001.06;;;3.58;71.38
72395;BME280;60384;48.152;11.614;2023-01-30T16:46:59;95989.69;;;3.58;71.05
72395;BME280;60384;48.152;11.614;2023-01-30T16:50:02;95993.91;;;3.54;71.57
72395;BME280;60384;48.152;11.614;2023-01-30T16:53:04;95998.66;;;3.52;71.24
72395;BME280;60384;48.152;11.614;2023-01-30T16:56:09;95992.06;;;3.49;71.80
72395;BME280;60384;48.152;11.614;2023-01-30T16:59:19;95997.88;;;3.46;71.68
72395;BME280;60384;48.152;11.614;2023-01-30T17:02:32;96006.84;;;3.45;71.19
72395;BME280;60384;48.152;11.614;2023-01-30T17:05:38;96026.13;;;3.46;71.20
72395;BME280;60384;48.152;11.614;2023-01-30T17:08:46;96021.09;;;3.44;71.20
72395;BME280;60384;48.152;11.614;2023-01-30T17:11:48;96048.56;;;3.43;71.06
72395;BME280;60384;48.152;11.614;2023-01-30T17:18:46;96063.09;;;3.41;71.26
72395;BME280;60384;48.152;11.614;2023-01-30T17:21:49;96061.75;;;3.38;71.75
72395;BME280;60384;48.152;11.614;2023-01-30T17:24:53;96058.84;;;3.40;71.49
72395;BME280;60384;48.152;11.614;2023-01-30T17:27:58;96065.19;;;3.39;71.60
72395;BME280;60384;48.152;11.614;2023-01-30T17:30:59;96074.16;;;3.38;71.62
72395;BME280;60384;48.152;11.614;2023-01-30T17:34:03;96071.50;;;3.38;71.89
72395;BME280;60384;48.152;11.614;2023-01-30T17:37:05;96077.84;;;3.37;71.30
72395;BME280;60384;48.152;11.614;2023-01-30T17:40:10;96080.47;;;3.37;71.77
72395;BME280;60384;48.152;11.614;2023-01-30T17:43:14;96069.13;;;3.36;71.23
72395;BME280;60384;48.152;11.614;2023-01-30T17:46:17;96078.91;;;3.36;71.12
72395;BME280;60384;48.152;11.614;2023-01-30T17:49:22;96079.16;;;3.34;71.55
72395;BME280;60384;48.152;11.614;2023-01-30T17:52:24;96083.66;;;3.33;71.51
72395;BME280;60384;48.152;11.614;2023-01-30T17:55:26;96081.00;;;3.33;71.33
72395;BME280;60384;48.152;11.614;2023-01-30T17:58:28;96076.00;;;3.32;71.11
72395;BME280;60384;48.152;11.614;2023-01-30T18:01:30;96076.00;;;3.32;71.68
72395;BME280;60384;48.152;11.614;2023-01-30T18:04:33;96089.44;;;3.30;71.30
72395;BME280;60384;48.152;11.614;2023-01-30T18:07:35;96091.56;;;3.28;71.59
72395;BME280;60384;48.152;11.614;2023-01-30T18:10:37;96096.06;;;3.28;71.27
72395;BME280;60384;48.152;11.614;2023-01-30T18:13:40;96103.72;;;3.29;71.70
72395;BME280;60384;48.152;11.614;2023-01-30T18:16:43;96090.53;;;3.29;71.40
72395;BME280;60384;48.152;11.614;2023-01-30T18:19:47;96093.16;;;3.29;71.65
72395;BME280;60384;48.152;11.614;2023-01-30T18:22:48;96095.25;;;3.27;71.69
72395;BME280;60384;48.152;11.614;2023-01-30T18:25:50;96096.31;;;3.26;71.36
72395;BME280;60384;48.152;11.614;2023-01-30T18:28:52;96106.84;;;3.26;71.43
72395;BME280;60384;48.152;11.614;2023-01-30T18:31:54;96121.66;;;3.27;71.84
72395;BME280;60384;48.152;11.614;2023-01-30T18:35:05;96127.19;;;3.26;71.84
72395;BME280;60384;48.152;11.614;2023-01-30T18:38:07;96139.34;;;3.27;72.08
72395;BME280;60384;48.152;11.614;2023-01-30T18:41:10;96140.94;;;3.28;71.32
72395;BME280;60384;48.152;11.614;2023-01-30T18:44:12;96135.66;;;3.28;71.63
72395;BME280;60384;48.152;11.614;2023-01-30T18:47:14;96138.28;;;3.28;71.81
72395;BME280;60384;48.152;11.614;2023-01-30T18:50:17;96148.84;;;3.28;71.35
72395;BME280;60384;48.152;11.614;2023-01-30T18:53:19;96147.00;;;3.28;71.95
72395;BME280;60384;48.152;11.614;2023-01-30T18:56:23;96147.00;;;3.28;71.32
72395;BME280;60384;48.152;11.614;2023-01-30T18:59:26;96152.81;;;3.30;71.41
72395;BME280;60384;48.152;11.614;2023-01-30T19:02:27;96156.22;;;3.31;71.70
72395;BME280;60384;48.152;11.614;2023-01-30T19:05:34;96155.97;;;3.32;71.21
72395;BME280;60384;48.152;11.614;2023-01-30T19:08:36;96158.38;;;3.34;71.54
72395;BME280;60384;48.152;11.614;2023-01-30T19:11:37;96161.00;;;3.34;71.40
72395;BME280;60384;48.152;11.614;2023-01-30T19:14:57;96172.38;;;3.35;71.79
72395;BME280;60384;48.152;11.614;2023-01-30T19:17:59;96170.78;;;3.33;71.33
72395;BME280;60384;48.152;11.614;2023-01-30T19:21:02;96161.81;;;3.35;71.22
72395;BME280;60384;48.152;11.614;2023-01-30T19:24:05;96167.09;;;3.35;71.81
72395;BME280;60384;48.152;11.614;2023-01-30T19:27:07;96175.81;;;3.35;71.46
72395;BME280;60384;48.152;11.614;2023-01-30T19:30:13;96176.59;;;3.36;71.59
72395;BME280;60384;48.152;11.614;2023-01-30T19:33:15;96185.03;;;3.38;71.26
72395;BME280;60384;48.152;11.614;2023-01-30T19:36:20;96190.56;;;3.36;71.29
72395;BME280;60384;48.152;11.614;2023-01-30T19:39:22;96197.72;;;3.36;71.10
72395;BME280;60384;48.152;11.614;2023-01-30T19:42:24;96204.84;;;3.35;71.64
72395;BME280;60384;48.152;11.614;2023-01-30T19:45:26;96196.94;;;3.35;71.14
72395;BME280;60384;48.152;11.614;2023-01-30T19:48:29;96203.00;;;3.36;71.72
72395;BME280;60384;48.152;11.614;2023-01-30T19:51:33;96208.28;;;3.36;71.32
72395;BME280;60384;48.152;11.614;2023-01-30T19:54:35;96210.94;;;3.36;71.94
72395;BME280;60384;48.152;11.614;2023-01-30T19:57:37;96215.41;;;3.35;71.46
72395;BME280;60384;48.152;11.614;2023-01-30T20:00:39;96209.34;;;3.35;71.77
72395;BME280;60384;48.152;11.614;2023-01-30T20:03:41;96205.09;;;3.33;71.81
72395;BME280;60384;48.152;11.614;2023-01-30T20:06:44;96207.72;;;3.28;71.45
72395;BME280;60384;48.152;11.614;2023-01-30T20:09:48;96190.81;;;3.24;71.66
72395;BME280;60384;48.152;11.614;2023-01-30T20:12:50;96205.84;;;3.24;71.91
72395;BME280;60384;48.152;11.614;2023-01-30T20:15:51;96206.91;;;3.23;71.21
72395;BME280;60384;48.152;11.614;2023-01-30T20:18:54;96208.75;;;3.22;71.53
72395;BME280;60384;48.152;11.614;2023-01-30T20:21:57;96185.78;;;3.23;71.84
72395;BME280;60384;48.152;11.614;2023-01-30T20:25:01;96194.22;;;3.25;71.32
72395;BME280;60384;48.152;11.614;2023-01-30T20:28:03;96197.66;;;3.25;71.78
72395;BME280;60384;48.152;11.614;2023-01-30T20:31:07;96191.34;;;3.26;71.33
72395;BME280;60384;48.152;11.614;2023-01-30T20:34:11;96196.38;;;3.28;71.63
72395;BME280;60384;48.152;11.614;2023-01-30T20:37:14;96201.91;;;3.31;72.00
72395;BME280;60384;48.152;11.614;2023-01-30T20:40:16;96212.22;;;3.33;71.57
72395;BME280;60384;48.152;11.614;2023-01-30T20:43:18;96208.53;;;3.34;71.46
72395;BME280;60384;48.152;11.614;2023-01-30T20:46:22;96194.28;;;3.35;71.82
72395;BME280;60384;48.152;11.614;2023-01-30T20:49:23;96193.50;;;3.35;71.65
72395;BME280;60384;48.152;11.614;2023-01-30T20:52:27;96201.41;;;3.35;71.39
72395;BME280;60384;48.152;11.614;2023-01-30T20:55:29;96200.38;;;3.36;71.12
72395;BME280;60384;48.152;11.614;2023-01-30T20:58:31;96211.19;;;3.34;71.85
72395;BME280;60384;48.152;11.614;2023-01-30T21:01:33;96223.34;;;3.35;71.62
72395;BME280;60384;48.152;11.614;2023-01-30T21:04:35;96215.41;;;3.35;71.28
72395;BME280;60384;48.152;11.614;2023-01-30T21:07:39;96211.97;;;3.35;71.42
72395;BME280;60384;48.152;11.614;2023-01-30T21:10:41;96213.56;;;3.36;71.40
72395;BME280;60384;48.152;11.614;2023-01-30T21:13:46;96201.13;;;3.36;71.52
72395;BME280;60384;48.152;11.614;2023-01-30T21:16:49;96214.34;;;3.36;71.46
72395;BME280;60384;48.152;11.614;2023-01-30T21:19:50;96212.78;;;3.35;71.87
72395;BME280;60384;48.152;11.614;2023-01-30T21:22:54;96190.06;;;3.34;71.21
72395;BME280;60384;48.152;11.614;2023-01-30T21:25:56;96220.94;;;3.33;71.88
72395;BME280;60384;48.152;11.614;2023-01-30T21:28:58;96214.88;;;3.33;71.97
72395;BME280;60384;48.152;11.614;2023-01-30T21:32:00;96242.31;;;3.32;71.36
72395;BME280;60384;48.152;11.614;2023-01-30T21:35:02;96224.88;;;3.31;71.47
72395;BME280;60384;48.152;11.614;2023-01-30T21:38:08;96226.72;;;3.30;71.49
72395;BME280;60384;48.152;11.614;2023-01-30T21:41:28;96230.94;;;3.31;72.08
72395;BME280;60384;48.152;11.614;2023-01-30T21:44:49;96238.34;;;3.29;71.81
72395;BME280;60384;48.152;11.614;2023-01-30T21:47:51;96235.72;;;3.29;71.79
72395;BME280;60384;48.152;11.614;2023-01-30T21:50:53;96249.72;;;3.30;71.63
72395;BME280;60384;48.152;11.614;2023-01-30T21:53:57;96249.72;;;3.30;71.74
72395;BME280;60384;48.152;11.614;2023-01-30T21:56:59;96251.56;;;3.29;71.30
72395;BME280;60384;48.152;11.614;2023-01-30T22:00:02;96258.69;;;3.29;71.99
72395;BME280;60384;48.152;11.614;2023-01-30T22:03:05;96257.88;;;3.28;71.39
72395;BME280;60384;48.152;11.614;2023-01-30T22:06:08;96264.75;;;3.29;71.60
72395;BME280;60384;48.152;11.614;2023-01-30T22:09:13;96277.94;;;3.29;71.27
72395;BME280;60384;48.152;11.614;2023-01-30T22:12:15;96269.22;;;3.29;71.35
72395;BME280;60384;48.152;11.614;2023-01-30T22:15:17;96263.97;;;3.29;71.36
72395;BME280;60384;48.152;11.614;2023-01-30T22:18:19;96273.97;;;3.27;71.55
72395;BME280;60384;48.152;11.614;2023-01-30T22:21:23;96260.75;;;3.27;71.39
72395;BME280;60384;48.152;11.614;2023-01-30T22:24:27;96266.03;;;3.27;71.31
72395;BME280;60384;48.152;11.614;2023-01-30T22:27:29;96273.16;;;3.26;71.57
72395;BME280;60384;48.152;11.614;2023-01-30T22:30:30;96281.09;;;3.26;71.56
72395;BME280;60384;48.152;11.614;2023-01-30T22:33:33;96285.56;;;3.26;71.73
72395;BME280;60384;48.152;11.614;2023-01-30T22:36:35;96282.13;;;3.25;71.79
72395;BME280;60384;48.152;11.614;2023-01-30T22:39:38;96283.97;;;3.25;71.57
72395;BME280;60384;48.152;11.614;2023-01-30T22:42:45;96285.84;;;3.24;71.95
72395;BME280;60384;48.152;11.614;2023-01-30T22:45:47;96276.06;;;3.25;71.35
72395;BME280;60384;48.152;11.614;2023-01-30T22:48:49;96274.50;;;3.24;71.56
72395;BME280;60384;48.152;11.614;2023-01-30T22:51:50;96286.09;;;3.23;71.51
72395;BME280;60384;48.152;11.614;2023-01-30T22:54:54;96271.03;;;3.23;71.64
72395;BME280;60384;48.152;11.614;2023-01-30T22:57:55;96277.13;;;3.24;71.98
72395;BME280;60384;48.152;11.614;2023-01-30T23:01:05;96279.75;;;3.24;71.78
72395;BME280;60384;48.152;11.614;2023-01-30T23:04:10;96283.19;;;3.24;71.46
72395;BME280;60384;48.152;11.614;2023-01-30T23:07:12;96277.94;;;3.24;72.20
72395;BME280;60384;48.152;11.614;2023-01-30T23:10:17;96288.47;;;3.24;71.58
72395;BME280;60384;48.152;11.614;2023-01-30T23:13:19;96292.97;;;3.24;71.26
72395;BME280;60384;48.152;11.614;2023-01-30T23:16:23;96295.59;;;3.24;71.30
72395;BME280;60384;48.152;11.614;2023-01-30T23:19:25;96304.31;;;3.24;71.66
72395;BME280;60384;48.152;11.614;2023-01-30T23:22:26;96298.25;;;3.24;71.88
72395;BME280;60384;48.152;11.614;2023-01-30T23:25:30;96298.25;;;3.24;71.45
72395;BME280;60384;48.152;11.614;2023-01-30T23:28:32;96297.44;;;3.23;71.36
72395;BME280;60384;48.152;11.614;2023-01-30T23:31:35;96298.25;;;3.24;72.04
72395;BME280;60384;48.152;11.614;2023-01-30T23:34:37;96303.53;;;3.24;72.14
72395;BME280;60384;48.152;11.614;2023-01-30T23:37:39;96300.59;;;3.25;71.49
72395;BME280;60384;48.152;11.614;2023-01-30T23:41:11;96305.09;;;3.25;71.78
72395;BME280;60384;48.152;11.614;2023-01-30T23:44:12;96305.88;;;3.25;71.62
72395;BME280;60384;48.152;11.614;2023-01-30T23:47:14;96310.13;;;3.26;71.87
72395;BME280;60384;48.152;11.614;2023-01-30T23:50:16;96325.97;;;3.26;71.58
72395;BME280;60384;48.152;11.614;2023-01-30T23:53:18;96322.53;;;3.26;71.88
72395;BME280;60384;48.152;11.614;2023-01-30T23:56:22;96318.03;;;3.26;71.35
72395;BME280;60384;48.152;11.614;2023-01-30T23:59:24;96318.84;;;3.27;71.48
